Time;durP1;ratioP1;P1;durP2;ratioP2;P2;SDS_P1;SDS_P2;PMS_P1;PMS_P2;Temp;Humidity;BMP_temperature;BMP_pressure;BME280_temperature;BME280_humidity;BME280_pressure;Samples;Min_cycle;Max_cycle;Signal;HPM_P1;HPM_P2
2023/03/03 00:00:13;;;;;;;35.17;14.95;;;2.90;74.90;;;;;;9183041;19;20019;-67
2023/03/03 00:03:21;;;;;;;32.90;15.43;;;2.90;75.00;;;;;;9182388;19;20006;-68
2023/03/03 00:06:29;;;;;;;34.50;14.50;;;2.90;74.90;;;;;;9182831;19;20006;-67
2023/03/03 00:09:35;;;;;;;33.05;14.52;;;2.90;74.90;;;;;;9180167;19;20018;-67
2023/03/03 00:12:48;;;;;;;37.92;16.20;;;2.90;75.00;;;;;;9182736;19;20531;-68
2023/03/03 00:15:55;;;;;;;36.40;15.70;;;2.90;75.00;;;;;;9182322;19;20018;-67
2023/03/03 00:19:00;;;;;;;37.70;16.65;;;2.90;75.00;;;;;;9181883;19;20026;-67
2023/03/03 00:22:19;;;;;;;42.47;17.25;;;2.90;75.00;;;;;;9181939;19;20025;-68
2023/03/03 00:25:30;;;;;;;40.20;16.45;;;2.90;75.10;;;;;;9180545;19;20042;-67
2023/03/03 00:28:47;;;;;;;44.15;17.05;;;2.90;75.00;;;;;;9180563;19;20373;-68
2023/03/03 00:31:51;;;;;;;42.22;17.13;;;2.90;75.00;;;;;;9179756;19;20041;-67
2023/03/03 00:35:18;;;;;;;41.75;16.42;;;2.90;75.10;;;;;;9182847;19;20498;-68
2023/03/03 00:38:25;;;;;;;36.45;16.25;;;2.90;75.10;;;;;;9182156;19;20375;-67
2023/03/03 00:41:31;;;;;;;38.25;16.73;;;2.90;75.10;;;;;;9180213;19;20018;-68
2023/03/03 00:44:42;;;;;;;48.38;21.95;;;2.90;75.30;;;;;;9180418;19;20041;-68
2023/03/03 00:47:49;;;;;;;41.95;16.50;;;2.90;75.20;;;;;;9182375;19;20017;-67
2023/03/03 00:50:54;;;;;;;38.35;16.05;;;2.90;75.20;;;;;;9178674;19;20027;-67
2023/03/03 00:54:02;;;;;;;39.70;16.67;;;2.90;75.20;;;;;;9181467;19;20014;-67
2023/03/03 00:57:06;;;;;;;35.85;16.70;;;2.90;75.20;;;;;;9180483;19;20363;-68
2023/03/03 01:00:14;;;;;;;39.83;17.05;;;2.90;75.30;;;;;;9176997;19;20110;-67
2023/03/03 01:03:20;;;;;;;42.22;17.27;;;2.90;75.30;;;;;;9183732;19;20074;-68
2023/03/03 01:06:27;;;;;;;42.53;16.15;;;3.00;75.40;;;;;;9179228;19;20089;-67
2023/03/03 01:09:33;;;;;;;47.08;16.42;;;3.00;75.40;;;;;;9176201;19;20010;-68
2023/03/03 01:12:39;;;;;;;37.15;16.42;;;3.00;75.40;;;;;;9180235;19;20010;-67
2023/03/03 01:15:44;;;;;;;39.92;15.80;;;3.00;75.40;;;;;;9173827;19;20015;-68
2023/03/03 01:18:52;;;;;;;45.75;16.15;;;3.00;75.40;;;;;;9180541;19;20018;-67
2023/03/03 01:21:56;;;;;;;37.28;15.68;;;3.00;75.40;;;;;;9180326;19;20026;-67
2023/03/03 01:25:04;;;;;;;37.33;16.88;;;3.00;75.40;;;;;;9179193;19;20019;-68
2023/03/03 01:28:08;;;;;;;41.00;17.55;;;3.10;75.50;;;;;;9179931;19;20078;-67
2023/03/03 01:31:14;;;;;;;42.28;18.70;;;3.10;75.50;;;;;;9177828;19;20091;-67
2023/03/03 01:34:19;;;;;;;39.90;17.95;;;3.10;75.50;;;;;;9179462;19;20078;-67
2023/03/03 01:37:26;;;;;;;41.78;17.70;;;3.10;75.50;;;;;;9178866;19;20038;-68
2023/03/03 01:40:33;;;;;;;42.75;17.45;;;3.10;75.50;;;;;;9179297;19;20018;-68
2023/03/03 01:43:46;;;;;;;42.95;18.17;;;3.10;75.50;;;;;;9179866;19;20047;-67
2023/03/03 01:46:57;;;;;;;39.05;16.75;;;3.10;75.50;;;;;;9178104;19;20007;-67
2023/03/03 01:50:07;;;;;;;43.60;17.53;;;3.20;75.60;;;;;;9177330;19;20022;-67
2023/03/03 01:53:19;;;;;;;38.88;14.95;;;3.20;75.60;;;;;;9178724;19;21043;-68
2023/03/03 01:56:27;;;;;;;;;;;3.20;75.60;;;;;;9182106;19;20010;-68
2023/03/03 01:59:35;;;;;;;41.10;16.50;;;3.20;75.50;;;;;;9177226;19;20572;-67
2023/03/03 02:02:43;;;;;;;38.90;16.35;;;3.20;75.40;;;;;;9177586;19;20014;-67
2023/03/03 02:05:56;;;;;;;41.80;18.40;;;3.30;75.50;;;;;;9179762;19;20018;-68
2023/03/03 02:09:08;;;;;;;43.78;17.33;;;3.30;75.50;;;;;;9174023;19;20017;-68
2023/03/03 02:12:19;;;;;;;38.65;16.92;;;3.30;75.50;;;;;;9175475;19;20536;-68
2023/03/03 02:15:27;;;;;;;48.55;17.80;;;3.30;75.60;;;;;;9168202;19;20014;-68
2023/03/03 02:18:32;;;;;;;35.42;15.23;;;3.30;75.50;;;;;;9178801;19;20021;-68
2023/03/03 02:21:38;;;;;;;35.55;16.92;;;3.30;75.50;;;;;;9173818;19;20355;-68
2023/03/03 02:24:46;;;;;;;40.95;16.65;;;3.30;75.60;;;;;;9178623;19;20118;-66
2023/03/03 02:27:55;;;;;;;38.95;16.35;;;3.30;75.60;;;;;;9176412;19;20476;-68
2023/03/03 02:31:01;;;;;;;38.00;16.33;;;3.30;75.70;;;;;;9176671;19;20033;-67
2023/03/03 02:34:07;;;;;;;41.05;17.35;;;3.30;75.80;;;;;;9176325;19;20018;-68
2023/03/03 02:37:11;;;;;;;42.92;18.08;;;3.30;75.80;;;;;;9178276;19;20018;-67
2023/03/03 02:40:21;;;;;;;40.53;18.00;;;3.30;75.80;;;;;;9177960;19;20014;-68
2023/03/03 02:43:30;;;;;;;39.22;18.25;;;3.40;75.80;;;;;;9177687;19;20487;-68
2023/03/03 02:46:39;;;;;;;42.10;17.27;;;3.40;75.80;;;;;;9176808;19;20018;-67
2023/03/03 02:49:44;;;;;;;41.65;16.58;;;3.40;75.80;;;;;;9177739;19;20019;-68
2023/03/03 02:52:50;;;;;;;44.90;18.10;;;3.40;75.80;;;;;;9176414;19;20355;-68
2023/03/03 02:55:54;;;;;;;40.47;17.38;;;3.40;75.90;;;;;;9175637;19;20483;-68
2023/03/03 02:59:03;;;;;;;34.78;15.48;;;3.40;75.90;;;;;;9176428;19;20015;-68
2023/03/03 03:02:11;;;;;;;43.42;18.02;;;3.40;75.90;;;;;;9175738;19;20011;-68
2023/03/03 03:05:17;;;;;;;39.38;15.95;;;3.50;75.90;;;;;;9177401;19;20022;-68
2023/03/03 03:08:21;;;;;;;38.35;16.15;;;3.40;75.90;;;;;;9173846;19;20018;-68
2023/03/03 03:11:27;;;;;;;44.35;18.70;;;3.50;75.90;;;;;;9173338;19;20033;-68
2023/03/03 03:14:34;;;;;;;39.22;16.33;;;3.50;75.90;;;;;;9169263;19;20014;-68
2023/03/03 03:17:41;;;;;;;40.30;16.38;;;3.50;75.90;;;;;;9173147;19;20106;-67
2023/03/03 03:20:45;;;;;;;34.83;15.88;;;3.50;75.90;;;;;;9174621;19;20033;-68
2023/03/03 03:23:54;;;;;;;38.45;15.32;;;3.50;75.90;;;;;;9174625;19;20021;-68
2023/03/03 03:26:59;;;;;;;36.80;16.08;;;3.50;75.90;;;;;;9175497;19;20013;-68
2023/03/03 03:30:10;;;;;;;33.00;15.50;;;3.50;75.90;;;;;;9174086;19;20018;-67
2023/03/03 03:33:15;;;;;;;36.10;16.27;;;3.50;76.00;;;;;;9181333;19;20610;-67
2023/03/03 03:36:21;;;;;;;36.63;16.02;;;3.50;76.00;;;;;;9182387;19;20014;-67
2023/03/03 03:39:26;;;;;;;41.17;16.95;;;3.50;76.10;;;;;;9184209;19;20010;-67
2023/03/03 03:42:33;;;;;;;39.60;17.02;;;3.50;76.10;;;;;;9182018;19;20029;-67
2023/03/03 03:45:39;;;;;;;33.10;14.77;;;3.50;76.10;;;;;;9184168;19;20540;-67
2023/03/03 03:48:47;;;;;;;36.03;15.85;;;3.50;76.00;;;;;;9182089;19;20023;-67
2023/03/03 03:51:53;;;;;;;34.50;14.88;;;3.50;76.00;;;;;;9180434;19;20090;-67
2023/03/03 03:55:02;;;;;;;36.05;15.57;;;3.50;76.00;;;;;;9182154;19;20011;-67
2023/03/03 03:58:07;;;;;;;35.60;15.13;;;3.50;76.00;;;;;;9182070;19;20485;-67
2023/03/03 04:01:15;;;;;;;37.53;15.50;;;3.50;76.00;;;;;;9183481;19;20486;-67
2023/03/03 04:04:23;;;;;;;33.72;16.23;;;3.50;76.10;;;;;;9182218;19;20101;-68
2023/03/03 04:07:30;;;;;;;33.22;16.35;;;3.60;76.10;;;;;;9181956;19;20380;-67
2023/03/03 04:10:36;;;;;;;38.72;16.70;;;3.60;76.10;;;;;;9181302;19;20449;-67
2023/03/03 04:13:43;;;;;;;34.38;15.48;;;3.60;76.10;;;;;;9176227;19;20484;-67
2023/03/03 04:16:50;;;;;;;35.13;15.68;;;3.60;76.20;;;;;;9182126;19;20024;-67
2023/03/03 04:19:56;;;;;;;34.70;15.13;;;3.60;76.20;;;;;;9185321;19;20021;-67
2023/03/03 04:23:01;;;;;;;34.03;15.07;;;3.60;76.10;;;;;;9183280;19;20484;-67
2023/03/03 04:26:10;;;;;;;36.10;16.42;;;3.60;76.10;;;;;;9183817;19;20014;-67
2023/03/03 04:29:15;;;;;;;39.00;16.63;;;3.60;76.10;;;;;;9183510;19;20031;-67
2023/03/03 04:32:24;;;;;;;33.95;15.38;;;3.60;76.10;;;;;;9180922;19;20018;-67
2023/03/03 04:35:28;;;;;;;35.60;15.25;;;3.60;76.10;;;;;;9181805;19;20007;-67
2023/03/03 04:38:35;;;;;;;38.03;16.23;;;3.60;76.20;;;;;;9180451;19;20014;-67
2023/03/03 04:41:39;;;;;;;33.78;14.15;;;3.60;76.20;;;;;;9181955;19;20018;-67
2023/03/03 04:44:45;;;;;;;38.13;16.33;;;3.60;76.10;;;;;;9180176;19;20392;-67
2023/03/03 04:47:52;;;;;;;37.30;15.48;;;3.60;76.10;;;;;;9180625;19;20013;-67
2023/03/03 04:50:59;;;;;;;36.60;14.88;;;3.60;76.20;;;;;;9178098;19;20010;-68
2023/03/03 04:54:04;;;;;;;31.02;13.88;;;3.60;76.20;;;;;;9182400;19;20021;-68
2023/03/03 04:57:10;;;;;;;34.03;13.65;;;3.60;76.20;;;;;;9180061;19;20340;-68
2023/03/03 05:00:17;;;;;;;30.92;14.45;;;3.60;76.30;;;;;;9181118;19;20021;-67
2023/03/03 05:03:26;;;;;;;37.95;15.05;;;3.60;76.30;;;;;;9181469;19;20019;-67
2023/03/03 05:06:30;;;;;;;36.03;14.57;;;3.60;76.20;;;;;;9179814;19;20025;-67
2023/03/03 05:09:36;;;;;;;33.45;14.85;;;3.60;76.30;;;;;;9175913;19;20372;-67
2023/03/03 05:12:40;;;;;;;32.60;13.90;;;3.60;76.30;;;;;;9179031;19;20022;-67
2023/03/03 05:15:51;;;;;;;39.50;16.50;;;3.60;76.30;;;;;;9177802;19;20017;-67
2023/03/03 05:18:57;;;;;;;34.63;15.25;;;3.60;76.40;;;;;;9181270;19;20360;-67
2023/03/03 05:22:03;;;;;;;41.90;17.05;;;3.60;76.30;;;;;;9180407;19;20014;-67
2023/03/03 05:25:09;;;;;;;34.35;14.82;;;3.70;76.40;;;;;;9180845;19;20022;-67
2023/03/03 05:28:16;;;;;;;32.15;13.40;;;3.70;76.40;;;;;;9181619;19;20014;-67
2023/03/03 05:31:21;;;;;;;37.08;15.48;;;3.70;76.40;;;;;;9177855;19;20010;-67
2023/03/03 05:34:29;;;;;;;33.90;14.85;;;3.70;76.90;;;;;;9180790;19;20018;-67
2023/03/03 05:37:33;;;;;;;35.95;14.88;;;3.70;76.30;;;;;;9180337;19;20017;-67
2023/03/03 05:40:40;;;;;;;32.03;14.13;;;3.70;76.30;;;;;;9178756;19;20025;-67
2023/03/03 05:43:44;;;;;;;35.78;14.90;;;3.70;76.50;;;;;;9180285;19;20015;-67
2023/03/03 05:46:50;;;;;;;37.00;15.70;;;3.70;76.40;;;;;;9180477;19;20018;-67
2023/03/03 05:49:56;;;;;;;36.17;15.30;;;3.70;76.40;;;;;;9180680;19;20340;-67
2023/03/03 05:53:03;;;;;;;39.42;15.88;;;3.70;76.40;;;;;;9176660;19;20024;-67
2023/03/03 05:56:08;;;;;;;32.00;14.13;;;3.70;76.40;;;;;;9177568;19;20019;-67
2023/03/03 05:59:14;;;;;;;37.05;14.70;;;3.70;76.40;;;;;;9178555;19;20368;-67
2023/03/03 06:02:18;;;;;;;40.47;15.95;;;3.70;76.40;;;;;;9179270;19;20539;-67
2023/03/03 06:05:26;;;;;;;35.28;15.65;;;3.70;76.40;;;;;;9179132;19;20014;-67
2023/03/03 06:08:31;;;;;;;39.05;15.38;;;3.70;76.40;;;;;;9177799;19;20016;-67
2023/03/03 06:11:38;;;;;;;30.92;14.27;;;3.80;76.40;;;;;;9176615;19;20021;-67
2023/03/03 06:14:42;;;;;;;36.25;13.52;;;3.80;76.40;;;;;;9175216;19;20022;-68
2023/03/03 06:17:49;;;;;;;36.13;13.85;;;3.80;76.40;;;;;;9179184;19;20011;-68
2023/03/03 06:20:56;;;;;;;35.83;13.75;;;3.80;76.50;;;;;;9177327;19;20010;-68
2023/03/03 06:24:02;;;;;;;34.20;14.80;;;3.70;76.50;;;;;;9179370;19;20068;-68
2023/03/03 06:27:06;;;;;;;33.28;12.80;;;3.70;76.50;;;;;;9179225;19;20529;-68
2023/03/03 06:30:13;;;;;;;31.20;12.63;;;3.70;76.50;;;;;;9178729;19;20341;-68
2023/03/03 06:33:17;;;;;;;33.53;12.45;;;3.70;76.50;;;;;;9174691;19;20010;-68
2023/03/03 06:36:26;;;;;;;32.22;11.45;;;3.70;76.50;;;;;;9178853;19;20015;-68
2023/03/03 06:39:30;;;;;;;31.85;12.32;;;3.70;76.60;;;;;;9179475;19;20019;-68
2023/03/03 06:42:36;;;;;;;26.33;10.93;;;3.70;76.60;;;;;;9178414;19;20364;-68
2023/03/03 06:45:40;;;;;;;29.08;10.95;;;3.70;76.70;;;;;;9178636;19;20357;-68
2023/03/03 06:48:46;;;;;;;32.63;12.95;;;3.70;76.70;;;;;;9177719;19;20014;-68
2023/03/03 06:51:52;;;;;;;23.80;10.02;;;3.70;76.80;;;;;;9176047;19;20011;-68
2023/03/03 06:55:00;;;;;;;26.50;10.50;;;3.70;76.80;;;;;;9178282;19;20018;-68
2023/03/03 06:58:10;;;;;;;28.80;11.20;;;3.70;76.80;;;;;;9177736;19;20010;-68
2023/03/03 07:01:18;;;;;;;29.55;11.30;;;3.70;76.90;;;;;;9177536;19;20026;-68
2023/03/03 07:04:29;;;;;;;27.20;10.30;;;3.60;76.80;;;;;;9170629;19;20021;-68
2023/03/03 07:07:37;;;;;;;26.60;8.80;;;3.60;76.90;;;;;;9181537;19;20029;-67
2023/03/03 07:10:42;;;;;;;28.25;10.50;;;3.70;76.90;;;;;;9181569;19;20511;-68
2023/03/03 07:13:50;;;;;;;29.42;11.73;;;3.60;76.90;;;;;;9179322;19;20025;-68
2023/03/03 07:17:00;;;;;;;25.17;10.02;;;3.60;77.00;;;;;;9184705;19;20011;-68
2023/03/03 07:20:20;;;;;;;29.02;11.38;;;3.60;77.00;;;;;;9182494;19;20029;-68
2023/03/03 07:23:31;;;;;;;29.50;10.68;;;3.70;77.10;;;;;;9181216;19;20017;-68
2023/03/03 07:26:37;;;;;;;36.35;11.80;;;3.70;77.10;;;;;;9182746;19;20026;-68
2023/03/03 07:29:41;;;;;;;29.60;11.35;;;3.70;77.10;;;;;;9181980;19;20010;-68
2023/03/03 07:32:48;;;;;;;31.90;11.45;;;3.80;77.10;;;;;;9180803;19;20502;-67
2023/03/03 07:35:54;;;;;;;27.75;9.82;;;3.80;77.10;;;;;;9183281;19;20070;-67
2023/03/03 07:39:05;;;;;;;32.40;10.68;;;3.80;77.10;;;;;;9184035;19;20014;-68
2023/03/03 07:42:21;;;;;;;24.58;9.38;;;3.80;77.10;;;;;;9183620;19;20007;-66
2023/03/03 07:45:38;;;;;;;22.70;9.83;;;3.90;77.20;;;;;;9176174;19;20348;-68
2023/03/03 07:48:44;;;;;;;26.45;9.90;;;3.80;77.20;;;;;;9179397;19;20446;-67
2023/03/03 07:51:56;;;;;;;25.92;10.43;;;3.90;77.20;;;;;;9179268;19;20372;-67
2023/03/03 07:55:20;;;;;;;29.20;10.27;;;3.90;77.30;;;;;;9175807;19;20027;-67
2023/03/03 07:58:37;;;;;;;24.40;9.52;;;3.90;77.30;;;;;;9173175;19;20017;-68
2023/03/03 08:01:42;;;;;;;23.30;9.77;;;3.90;77.20;;;;;;9174842;19;20066;-67
2023/03/03 08:04:51;;;;;;;19.67;9.25;;;4.00;77.40;;;;;;9175932;19;20407;-67
2023/03/03 08:07:56;;;;;;;20.30;9.32;;;4.00;77.30;;;;;;9176143;19;20065;-68
2023/03/03 08:11:08;;;;;;;21.38;8.95;;;4.00;77.30;;;;;;9176310;19;20019;-68
2023/03/03 08:14:16;;;;;;;27.30;10.13;;;4.00;77.30;;;;;;9168907;19;20047;-68
2023/03/03 08:17:23;;;;;;;23.27;9.57;;;4.00;77.40;;;;;;9171652;19;20015;-68
2023/03/03 08:20:52;;;;;;;21.83;8.60;;;4.00;77.50;;;;;;9170686;19;20045;-66
2023/03/03 08:23:59;;;;;;;24.02;9.63;;;4.10;77.60;;;;;;9174518;19;20044;-66
2023/03/03 08:27:05;;;;;;;21.55;8.93;;;4.10;77.50;;;;;;9172784;19;20019;-66
2023/03/03 08:30:12;;;;;;;22.48;9.68;;;4.10;77.50;;;;;;9174976;19;20014;-66
2023/03/03 08:33:17;;;;;;;29.50;8.80;;;4.20;77.50;;;;;;9172211;19;20018;-66
2023/03/03 08:36:22;;;;;;;26.13;9.45;;;4.20;77.50;;;;;;9176453;19;20036;-66
2023/03/03 08:39:27;;;;;;;25.25;9.88;;;4.30;77.60;;;;;;9174848;19;20090;-66
2023/03/03 08:42:36;;;;;;;22.90;8.70;;;4.20;77.50;;;;;;9173129;19;20015;-66
2023/03/03 08:45:40;;;;;;;22.70;8.90;;;4.40;77.60;;;;;;9168749;19;20026;-66
2023/03/03 08:48:47;;;;;;;21.90;8.15;;;4.40;77.60;;;;;;9174168;19;20011;-66
2023/03/03 08:51:53;;;;;;;21.45;9.32;;;4.50;77.60;;;;;;9174618;19;20029;-66
2023/03/03 08:54:59;;;;;;;21.13;8.15;;;4.50;77.60;;;;;;9177824;19;20019;-66
2023/03/03 08:58:05;;;;;;;18.38;8.20;;;4.60;77.50;;;;;;9179270;19;20021;-66
2023/03/03 09:01:11;;;;;;;19.20;8.43;;;4.70;77.60;;;;;;9179546;19;20034;-66
2023/03/03 09:04:15;;;;;;;15.75;7.50;;;4.70;77.50;;;;;;9180690;19;20486;-66
2023/03/03 09:07:21;;;;;;;19.52;8.82;;;4.80;77.50;;;;;;9178594;19;20025;-67
2023/03/03 09:10:28;;;;;;;;;;;4.80;77.50;;;;;;9176781;19;20021;-66
2023/03/03 09:13:36;;;;;;;16.80;7.22;;;4.90;77.40;;;;;;9166069;19;19918;-66
2023/03/03 09:16:42;;;;;;;20.77;8.48;;;4.90;77.80;;;;;;9176136;19;20011;-66
2023/03/03 09:19:49;;;;;;;19.13;7.82;;;5.00;77.30;;;;;;9176066;19;20018;-66
2023/03/03 09:22:53;;;;;;;16.73;7.13;;;5.00;77.30;;;;;;9176284;19;20026;-67
2023/03/03 09:26:12;;;;;;;17.02;7.80;;;5.10;77.30;;;;;;9179338;19;20015;-67
2023/03/03 09:29:27;;;;;;;17.23;7.22;;;5.10;77.40;;;;;;9178465;19;20026;-67
2023/03/03 09:32:38;;;;;;;19.20;8.30;;;5.20;77.30;;;;;;9176883;19;20026;-66
2023/03/03 09:35:42;;;;;;;18.00;8.15;;;5.30;77.90;;;;;;9180926;19;20420;-66
2023/03/03 09:38:49;;;;;;;19.77;8.50;;;5.30;77.30;;;;;;9180591;19;20025;-66
2023/03/03 09:42:24;;;;;;;19.73;8.02;;;5.50;77.60;;;;;;9179985;19;20021;-66
2023/03/03 09:45:50;;;;;;;22.85;8.82;;;5.70;77.90;;;;;;9179688;19;20486;-66
2023/03/03 09:49:03;;;;;;;16.83;7.60;;;5.90;77.90;;;;;;9178988;19;20014;-66
2023/03/03 09:52:22;;;;;;;14.90;7.15;;;6.20;77.80;;;;;;9174750;19;20019;-66
2023/03/03 09:55:38;;;;;;;13.27;6.25;;;6.40;77.70;;;;;;9180619;19;20499;-65
2023/03/03 09:59:07;;;;;;;12.02;6.43;;;6.60;77.50;;;;;;9180216;19;20003;-66
2023/03/03 10:02:30;;;;;;;14.93;6.38;;;6.80;77.30;;;;;;9180586;19;20367;-66
2023/03/03 10:05:45;;;;;;;14.75;6.78;;;7.00;77.00;;;;;;9179628;19;20471;-66
2023/03/03 10:09:04;;;;;;;13.32;5.80;;;7.10;76.90;;;;;;9177132;19;20018;-65
2023/03/03 10:12:15;;;;;;;17.42;6.32;;;7.20;76.80;;;;;;9176457;19;20014;-66
2023/03/03 10:15:36;;;;;;;14.43;6.68;;;7.30;76.60;;;;;;9173274;19;20539;-66
2023/03/03 10:18:53;;;;;;;11.07;4.55;;;7.40;76.50;;;;;;9177789;19;20025;-66
2023/03/03 10:22:08;;;;;;;11.90;5.38;;;7.50;76.40;;;;;;9177475;19;20038;-66
2023/03/03 10:25:41;;;;;;;10.82;5.53;;;7.50;76.30;;;;;;9176334;19;20571;-66
2023/03/03 10:29:09;;;;;;;12.35;4.72;;;7.60;76.40;;;;;;9179575;19;20018;-67
2023/03/03 10:32:48;;;;;;;13.60;5.22;;;7.80;76.50;;;;;;9176915;19;20026;-66
2023/03/03 10:36:24;;;;;;;9.10;4.07;;;7.90;76.40;;;;;;9176694;19;20014;-66
2023/03/03 10:39:43;;;;;;;8.23;4.47;;;8.10;76.50;;;;;;9176970;19;20014;-67
2023/03/03 10:43:06;;;;;;;7.43;3.88;;;8.30;76.60;;;;;;9178818;19;20016;-67
2023/03/03 10:46:43;;;;;;;8.73;4.15;;;8.60;76.50;;;;;;9176237;19;20011;-66
2023/03/03 10:49:57;;;;;;;8.73;3.30;;;8.80;76.20;;;;;;9177738;19;20021;-67
2023/03/03 10:53:20;;;;;;;8.60;3.08;;;9.10;76.20;;;;;;9174575;19;20368;-66
2023/03/03 10:56:36;;;;;;;11.68;4.88;;;9.30;76.00;;;;;;9177868;19;20020;-66
2023/03/03 11:00:15;;;;;;;8.43;4.45;;;9.50;75.70;;;;;;9178029;19;20019;-66
2023/03/03 11:03:46;;;;;;;9.10;3.78;;;9.70;75.50;;;;;;9177790;19;20117;-66
2023/03/03 11:06:58;;;;;;;10.30;3.30;;;9.80;75.20;;;;;;9177950;19;20017;-66
2023/03/03 11:10:18;;;;;;;7.38;3.33;;;10.10;75.30;;;;;;9177212;19;20488;-67
2023/03/03 11:13:32;;;;;;;5.15;2.88;;;10.20;75.00;;;;;;9170537;19;20010;-67
2023/03/03 11:16:46;;;;;;;6.18;3.20;;;10.40;74.90;;;;;;9178898;19;20015;-66
2023/03/03 11:20:03;;;;;;;6.85;3.28;;;10.50;74.80;;;;;;9178952;19;20359;-66
2023/03/03 11:23:25;;;;;;;7.97;3.45;;;10.60;74.50;;;;;;9173620;19;20011;-66
2023/03/03 11:26:55;;;;;;;7.25;3.72;;;10.80;74.30;;;;;;9172674;19;20475;-66
2023/03/03 11:30:12;;;;;;;5.18;2.90;;;11.00;74.10;;;;;;9162644;19;20023;-66
2023/03/03 11:33:24;;;;;;;5.30;2.92;;;11.00;73.90;;;;;;9158786;19;20018;-66
2023/03/03 11:36:33;;;;;;;10.15;3.28;;;11.20;73.80;;;;;;9175606;19;20017;-66
2023/03/03 11:39:43;;;;;;;6.07;2.88;;;11.30;73.70;;;;;;9176228;19;20025;-66
2023/03/03 11:43:04;;;;;;;6.85;3.60;;;11.40;73.50;;;;;;9173390;19;20030;-68
2023/03/03 11:46:14;;;;;;;11.02;3.70;;;11.50;73.20;;;;;;9175799;19;20023;-67
2023/03/03 11:49:24;;;;;;;8.40;2.85;;;11.70;73.30;;;;;;9175727;19;20033;-66
2023/03/03 11:52:41;;;;;;;5.65;2.70;;;11.80;73.00;;;;;;9174307;19;20010;-67
2023/03/03 11:55:49;;;;;;;5.95;3.42;;;11.90;72.70;;;;;;9184080;19;20074;-66
2023/03/03 11:59:11;;;;;;;7.75;3.15;;;11.90;72.60;;;;;;9183490;19;20396;-67
2023/03/03 12:02:36;;;;;;;7.35;3.13;;;12.00;72.30;;;;;;9176488;19;20025;-67
2023/03/03 12:06:00;;;;;;;5.00;3.13;;;12.00;72.20;;;;;;9179180;19;20002;-67
2023/03/03 12:09:34;;;;;;;6.55;3.15;;;12.00;72.00;;;;;;9179605;19;20018;-67
2023/03/03 12:12:44;;;;;;;6.95;3.15;;;12.00;71.80;;;;;;9180399;19;20010;-67
2023/03/03 12:15:56;;;;;;;7.68;2.90;;;11.90;71.90;;;;;;9182056;19;20014;-67
2023/03/03 12:19:16;;;;;;;6.78;2.22;;;11.90;71.70;;;;;;9181404;19;20375;-67
2023/03/03 12:22:35;;;;;;;10.45;2.33;;;11.90;71.60;;;;;;9178930;19;20843;-66
2023/03/03 12:25:43;;;;;;;7.70;3.10;;;11.80;71.40;;;;;;9178340;19;20018;-66
2023/03/03 12:28:54;;;;;;;7.70;3.53;;;11.70;71.60;;;;;;9174412;19;20014;-66
2023/03/03 12:32:11;;;;;;;8.48;3.45;;;11.60;71.40;;;;;;9178746;19;20014;-66
2023/03/03 12:35:27;;;;;;;9.43;3.78;;;11.50;71.30;;;;;;9174605;19;20025;-66
2023/03/03 12:38:44;;;;;;;6.95;3.40;;;11.40;71.20;;;;;;9174234;19;20015;-66
2023/03/03 12:41:54;;;;;;;6.60;2.85;;;11.30;71.30;;;;;;9170717;19;20018;-66
2023/03/03 12:45:12;;;;;;;5.53;2.65;;;11.30;71.30;;;;;;9177730;19;20019;-69
2023/03/03 12:48:22;;;;;;;5.65;2.78;;;11.20;71.20;;;;;;9177163;19;20468;-70
2023/03/03 12:51:43;;;;;;;6.72;2.22;;;11.10;71.20;;;;;;9178130;19;20026;-66
2023/03/03 12:54:57;;;;;;;3.38;2.00;;;11.00;71.20;;;;;;9168646;19;20011;-66
2023/03/03 12:58:14;;;;;;;6.75;2.60;;;11.00;71.20;;;;;;9177949;19;20500;-66
2023/03/03 13:01:35;;;;;;;7.82;2.95;;;10.90;71.20;;;;;;9172948;19;20093;-66
2023/03/03 13:04:53;;;;;;;4.40;2.63;;;10.80;71.00;;;;;;9173802;19;20025;-66
2023/03/03 13:08:30;;;;;;;5.13;2.63;;;10.70;71.00;;;;;;9177223;19;20372;-66
2023/03/03 13:11:59;;;;;;;5.20;2.95;;;10.70;70.90;;;;;;9174524;19;20002;-67
2023/03/03 13:15:11;;;;;;;5.85;2.90;;;10.60;70.90;;;;;;9172573;19;20022;-66
2023/03/03 13:18:31;;;;;;;7.53;3.08;;;10.50;71.10;;;;;;9174748;19;20027;-66
2023/03/03 13:21:41;;;;;;;;;;;10.50;71.10;;;;;;9176103;19;21697;-66
2023/03/03 13:25:00;;;;;;;7.50;3.00;;;10.40;71.20;;;;;;9178368;19;19922;-66
2023/03/03 13:28:08;;;;;;;6.68;3.08;;;10.30;71.10;;;;;;9177394;19;20019;-66
2023/03/03 13:31:24;;;;;;;8.15;3.20;;;10.20;71.20;;;;;;9178111;19;20017;-66
2023/03/03 13:34:40;;;;;;;6.15;2.72;;;10.10;71.10;;;;;;9175761;19;20021;-65
2023/03/03 13:37:54;;;;;;;4.97;3.15;;;10.10;71.20;;;;;;9175294;19;20345;-66
2023/03/03 13:41:04;;;;;;;10.50;3.75;;;10.00;71.20;;;;;;9176920;19;20014;-65
2023/03/03 13:44:16;;;;;;;9.00;3.13;;;10.00;71.30;;;;;;9175986;19;20361;-65
2023/03/03 13:47:26;;;;;;;14.65;3.35;;;9.90;71.30;;;;;;9163207;19;20018;-65
2023/03/03 13:50:39;;;;;;;7.43;3.20;;;9.90;71.30;;;;;;9169916;19;20019;-65
2023/03/03 13:53:51;;;;;;;5.30;3.10;;;9.80;71.30;;;;;;9169601;19;20022;-65
2023/03/03 13:57:17;;;;;;;7.63;3.10;;;9.80;71.30;;;;;;9170733;19;20018;-66
2023/03/03 14:00:35;;;;;;;7.85;2.47;;;9.80;71.20;;;;;;9169250;19;20019;-65
2023/03/03 14:03:56;;;;;;;11.88;2.80;;;9.70;71.30;;;;;;9171717;19;20629;-66
2023/03/03 14:07:07;;;;;;;5.05;1.95;;;9.70;71.20;;;;;;9163760;19;20028;-66
2023/03/03 14:10:21;;;;;;;7.90;2.13;;;9.70;71.30;;;;;;9167853;19;20026;-65
2023/03/03 14:13:31;;;;;;;9.38;2.60;;;9.60;71.20;;;;;;9158920;19;20024;-66
2023/03/03 14:16:52;;;;;;;9.43;2.75;;;9.60;71.20;;;;;;9167266;19;20125;-66
2023/03/03 14:20:04;;;;;;;4.80;2.70;;;9.60;71.20;;;;;;9166472;19;20033;-66
2023/03/03 14:23:17;;;;;;;6.40;2.63;;;9.50;71.20;;;;;;9167499;19;20573;-65
2023/03/03 14:26:23;;;;;;;5.55;2.30;;;9.50;71.90;;;;;;9168260;19;20424;-66
2023/03/03 14:29:33;;;;;;;5.55;2.35;;;9.50;71.20;;;;;;9168460;19;20010;-66
2023/03/03 14:32:37;;;;;;;7.00;2.30;;;9.50;71.20;;;;;;9168012;19;20018;-65
2023/03/03 14:36:01;;;;;;;7.22;2.30;;;9.50;71.20;;;;;;9170183;19;20009;-65
2023/03/03 14:39:31;;;;;;;7.15;2.40;;;9.40;71.10;;;;;;9172220;19;20065;-66
2023/03/03 14:42:47;;;;;;;7.13;2.50;;;9.40;71.10;;;;;;9172482;19;20018;-65
2023/03/03 14:45:52;;;;;;;6.95;2.70;;;9.40;71.10;;;;;;9171443;19;20014;-65
2023/03/03 14:49:01;;;;;;;4.07;2.10;;;9.40;71.20;;;;;;9173202;19;20010;-66
2023/03/03 14:52:13;;;;;;;11.57;2.20;;;9.40;71.20;;;;;;9174460;19;20046;-65
2023/03/03 14:55:36;;;;;;;8.90;2.55;;;9.30;71.10;;;;;;9175782;19;20021;-65
2023/03/03 14:58:43;;;;;;;7.88;2.28;;;9.30;71.00;;;;;;9168601;19;20022;-65
2023/03/03 15:01:57;;;;;;;6.40;2.53;;;9.30;71.60;;;;;;9167381;19;20154;-65
2023/03/03 15:05:22;;;;;;;4.15;2.00;;;9.30;71.00;;;;;;9170038;19;20025;-66
2023/03/03 15:08:34;;;;;;;10.15;1.77;;;9.30;70.90;;;;;;9164324;19;20015;-65
2023/03/03 15:11:38;;;;;;;4.65;1.92;;;9.30;70.90;;;;;;9164839;19;20388;-65
2023/03/03 15:14:47;;;;;;;9.50;1.70;;;9.30;70.90;;;;;;9155799;19;20360;-65
2023/03/03 15:18:02;;;;;;;4.45;1.60;;;9.30;70.90;;;;;;9169843;19;20009;-65
2023/03/03 15:21:11;;;;;;;4.50;2.38;;;9.30;70.90;;;;;;9169325;19;20025;-65
2023/03/03 15:24:23;;;;;;;2.70;1.38;;;9.30;70.80;;;;;;9168574;19;20397;-65
2023/03/03 15:27:36;;;;;;;5.15;1.85;;;9.30;70.80;;;;;;9169911;19;20360;-66
2023/03/03 15:30:49;;;;;;;6.45;1.80;;;9.30;70.80;;;;;;9175312;19;20739;-65
2023/03/03 15:34:04;;;;;;;8.90;1.92;;;9.30;70.70;;;;;;9175198;19;20022;-66
2023/03/03 15:37:25;;;;;;;5.45;2.08;;;9.30;70.70;;;;;;9176938;19;20031;-65
2023/03/03 15:40:40;;;;;;;6.63;2.25;;;9.30;71.40;;;;;;9177808;19;20625;-66
2023/03/03 15:43:53;;;;;;;4.22;1.70;;;9.30;70.80;;;;;;9175770;19;20026;-66
2023/03/03 15:47:25;;;;;;;4.72;2.63;;;9.30;70.80;;;;;;9176804;19;20018;-66
2023/03/03 15:50:44;;;;;;;4.72;2.28;;;9.30;70.80;;;;;;9175542;19;20102;-66
2023/03/03 15:54:25;;;;;;;6.63;2.72;;;9.30;70.80;;;;;;9175449;19;20014;-66
2023/03/03 15:57:41;;;;;;;10.07;2.47;;;9.30;70.90;;;;;;9173575;19;20014;-66
2023/03/03 16:01:01;;;;;;;6.53;3.28;;;9.30;70.80;;;;;;9177347;19;20470;-66
2023/03/03 16:04:16;;;;;;;5.25;2.92;;;9.20;70.80;;;;;;9176604;19;20022;-66
2023/03/03 16:07:32;;;;;;;6.72;2.80;;;9.20;70.80;;;;;;9178390;19;20089;-66
2023/03/03 16:10:39;;;;;;;;;;;9.20;70.80;;;;;;9175267;19;20026;-66
2023/03/03 16:14:05;;;;;;;5.18;2.63;;;9.20;70.90;;;;;;9170074;19;19929;-67
2023/03/03 16:17:23;;;;;;;4.53;2.75;;;9.20;70.90;;;;;;9174122;19;20011;-64
2023/03/03 16:20:39;;;;;;;11.32;3.55;;;9.20;70.90;;;;;;9168183;19;20014;-64
2023/03/03 16:23:48;;;;;;;11.40;4.45;;;9.20;71.00;;;;;;9173504;19;20025;-64
2023/03/03 16:27:01;;;;;;;13.23;5.10;;;9.10;71.00;;;;;;9164804;19;20018;-64
2023/03/03 16:30:17;;;;;;;10.88;4.35;;;9.10;71.00;;;;;;9172941;19;20384;-64
2023/03/03 16:33:31;;;;;;;11.75;4.85;;;9.10;71.00;;;;;;9171618;19;20014;-64